Nearby METAR Reports

 

KSJC - San Jose, California, USA
Distance from station: NE 14km
Updated: 20/10/2019 23:53
Clear
Clear
 Wind from NNW
Wind: NNW 13 km/h
Temperature: 16°C
Dew Point: 11°C
Humidity: 72%
Barometer: 1019.3 hPa
Clouds: Clear
Visibility: 16 km
2019/10/21 02:53 KSJC 210253Z 34007KT 10SM CLR 16/11 A3010 RMK AO2 SLP191 T01610111 53005
KNUQ - Moffett Nas/Mtn, California, USA
Distance from station: N 14km
Updated: 20/10/2019 23:56

 
Barometer: 1019.6 hPa
2019/10/21 02:56 KNUQ 210256Z A3011 RMK AO2 SLP200 53007 PWINO $
 
KPAO - Palo Alto, California, USA
Distance from station: NNW 23km
Updated: 20/10/2019 23:47
Clear
Clear
 Wind from calm
Wind: Calm
Temperature: 16°C
Dew Point: 8°C
Humidity: 59%
Barometer: 1019.3 hPa
Clouds: Clear
Visibility: 16 km
2019/10/21 02:47 KPAO 210247Z 00000KT 10SM SKC 16/08 A3010
KRHV - San Jose/Reid, California, USA
Distance from station: ENE 19km
Updated: 20/10/2019 21:47
NOT Current
Clear
Clear
 Wind from WNW
Wind: WNW 19 km/h
Temperature: 21°C
Dew Point: 6°C
Humidity: 38%
Barometer: 1019 hPa
Clouds: Clear
Visibility: 16 km
2019/10/21 00:47 KRHV 210047Z 30010KT 10SM SKC 21/06 A3009
 
KOAK - Oakland, California, USA
Distance from station: NNW 50km
Updated: 20/10/2019 23:53
Few Clouds
Few Clouds
 Wind from WSW
Wind: WSW 11 km/h
Temperature: 17°C
Dew Point: 12°C
Humidity: 73%
Barometer: 1019.3 hPa
Clouds: Few Clouds
Visibility: 16 km
Cloud details: Few Clouds 6096 m
2019/10/21 02:53 KOAK 210253Z 25006KT 10SM FEW200 17/12 A3010 RMK AO2 SLP193 T01720117 55001
KSQL - San Carlos Airpo, California, USA
Distance from station: NW 34km
Updated: 20/10/2019 23:55
Clear
Clear
 Wind from E
Wind: E 17 km/h
Temperature: 17°C
Dew Point: 8°C
Humidity: 56%
Barometer: 1019.6 hPa
Clouds: Clear
Visibility: 16 km
2019/10/21 02:55 KSQL 210255Z 09009KT 10SM SKC 17/08 A3011
 
KSFO - San Francisco, California, USA
Distance from station: NW 49km
Updated: 20/10/2019 23:56
Clear
Clear
 Wind from W
Wind: W 28 km/h
Temperature: 16°C
Dew Point: 10°C
Humidity: 68%
Barometer: 1019.3 hPa
Clouds: Clear
Visibility: 16 km
2019/10/21 02:56 KSFO 210256Z 27015KT 10SM CLR 16/10 A3010 RMK AO2 SLP192 T01610100 55001
KE16 - San Martin, California, USA
Distance from station: ESE 43km
Updated: 21/10/2019 00:35
Clear
Clear
 Wind from NNW
Wind: NNW 17 km/h
Temperature: 17°C
Dew Point: 6°C
Humidity: 49%
Barometer: 1020 hPa
Clouds: Clear
Visibility: 16 km
2019/10/21 03:35 KE16 210335Z AUTO 34009KT 10SM CLR 17/06 A3012 RMK AO2
 
KWVI - Watsonville, California, USA
Distance from station: SSE 44km
Updated: 20/10/2019 23:53
Clear
Clear
 Wind from W
Wind: W 6 km/h
Temperature: 16°C
Dew Point: 9°C
Humidity: 63%
Barometer: 1018.6 hPa
Clouds: Clear
Visibility: 16 km
2019/10/21 02:53 KWVI 210253Z AUTO 27003KT 10SM CLR 16/09 A3008 RMK AO2 SLP186 T01560094 53006
KHAF - Half Moon Bay, California, USA
Distance from station: WNW 50km
Updated: 21/10/2019 00:35
Clear
Clear
 Wind from NNW
Wind: NNW 26 km/h, Gust: 41 km/h
Temperature: 15°C
Dew Point: 11°C
Humidity: 77%
Barometer: 1020 hPa
Clouds: Clear
Visibility: 14 km
2019/10/21 03:35 KHAF 210335Z AUTO 34014G22KT 9SM CLR 15/11 A3012 RMK AO2
 
KHWD - Hayward, California, USA
Distance from station: N 44km
Updated: 20/10/2019 23:54
Clear
Clear
 Wind from W
Wind: W 11 km/h
Temperature: 16°C
Dew Point: 12°C
Humidity: 77%
Barometer: 1019.3 hPa
Clouds: Clear
Visibility: 16 km
2019/10/21 02:54 KHWD 210254Z 27006KT 10SM CLR 16/12 A3010 RMK AO2 SLP201 T01610117 55001
KLVK - Livermore, California, USA
Distance from station: NNE 51km
Updated: 20/10/2019 23:53
Clear
Clear
 Wind from calm
Wind: Calm
Temperature: 17°C
Dew Point: 7°C
Humidity: 52%
Barometer: 1018.6 hPa
Clouds: Clear
Visibility: 16 km
2019/10/21 02:53 KLVK 210253Z 00000KT 10SM CLR 17/07 A3008 RMK AO2 SLP185 T01720067 53006